createdAt,value
2018-08-07T00:00:10.765Z,97803.03
2018-08-07T00:02:40.139Z,97793.17
2018-08-07T00:05:09.116Z,97796.23
2018-08-07T00:07:38.382Z,97798.55
2018-08-07T00:10:08.536Z,97790.23
2018-08-07T00:12:37.902Z,97787.27
2018-08-07T00:15:09.388Z,97786.05
2018-08-07T00:17:38.194Z,97773.80
2018-08-07T00:20:07.573Z,97786.08
2018-08-07T00:22:36.523Z,97782.91
2018-08-07T00:25:06.432Z,97779.75
2018-08-07T00:27:35.102Z,97775.28
2018-08-07T00:30:04.398Z,97777.15
2018-08-07T00:32:33.102Z,97784.66
2018-08-07T00:35:01.808Z,97781.62
2018-08-07T00:37:30.563Z,97773.91
2018-08-07T00:39:59.327Z,97776.66
2018-08-07T00:42:28.356Z,97766.34
2018-08-07T00:44:57.024Z,97774.59
2018-08-07T00:47:25.709Z,97778.58
2018-08-07T00:49:54.289Z,97772.25
2018-08-07T00:52:23.095Z,97768.13
2018-08-07T00:54:51.772Z,97769.42
2018-08-07T00:57:20.423Z,97763.52
2018-08-07T00:59:49.121Z,97764.84
2018-08-07T01:02:18.311Z,97763.61
2018-08-07T01:04:47.233Z,97764.75
2018-08-07T01:07:15.886Z,97764.86
2018-08-07T01:09:44.711Z,97765.09
2018-08-07T01:12:13.363Z,97767.30
2018-08-07T01:14:43.682Z,97766.23
2018-08-07T01:17:12.628Z,97766.75
2018-08-07T01:19:41.583Z,97767.84
2018-08-07T01:22:11.182Z,97763.69
2018-08-07T01:24:39.809Z,97763.16
2018-08-07T01:27:08.576Z,97761.14
2018-08-07T01:29:37.429Z,97761.52
2018-08-07T01:32:06.152Z,97755.97
2018-08-07T01:34:35.397Z,97755.41
2018-08-07T01:37:03.968Z,97758.88
2018-08-07T01:39:32.649Z,97756.08
2018-08-07T01:42:02.062Z,97751.08
2018-08-07T01:44:30.906Z,97754.91
2018-08-07T01:46:59.682Z,97750.86
2018-08-07T01:49:28.374Z,97747.17
2018-08-07T01:51:57.232Z,97751.95
2018-08-07T01:54:26.136Z,97748.55
2018-08-07T01:56:55.272Z,97752.75
2018-08-07T01:59:24.002Z,97756.09
2018-08-07T02:01:52.794Z,97755.44
2018-08-07T02:04:22.118Z,97755.29
2018-08-07T02:06:51.596Z,97766.20
2018-08-07T02:09:20.570Z,97757.45
2018-08-07T02:11:49.484Z,97760.57
2018-08-07T02:14:19.003Z,97753.29
2018-08-07T02:16:48.318Z,97754.80
2018-08-07T02:19:17.081Z,97757.11
2018-08-07T02:21:45.711Z,97760.13
2018-08-07T02:24:15.033Z,97751.42
2018-08-07T02:26:44.067Z,97739.66
2018-08-07T02:29:13.019Z,97743.34
2018-08-07T02:31:41.740Z,97743.05
2018-08-07T02:34:10.792Z,97740.02
2018-08-07T02:36:39.964Z,97739.72
2018-08-07T02:39:10.231Z,97744.91
2018-08-07T02:41:39.409Z,97750.76
2018-08-07T02:44:08.537Z,97737.69
2018-08-07T02:46:37.485Z,97739.14
2018-08-07T02:49:06.166Z,97740.73
2018-08-07T02:51:35.312Z,97743.11
2018-08-07T02:54:04.483Z,97749.76
2018-08-07T02:56:33.093Z,97752.03
2018-08-07T02:59:01.699Z,97748.56
2018-08-07T03:01:30.467Z,97748.27
2018-08-07T03:03:59.422Z,97755.69
2018-08-07T03:06:28.135Z,97756.82
2018-08-07T03:08:56.900Z,97756.62
2018-08-07T03:11:25.547Z,97762.60
2018-08-07T03:13:55.113Z,97762.14
2018-08-07T03:16:24.660Z,97764.67
2018-08-07T03:18:53.873Z,97763.37
2018-08-07T03:21:23.214Z,97761.33
2018-08-07T03:23:51.964Z,97758.53
2018-08-07T03:26:21.167Z,97762.53
2018-08-07T03:28:50.644Z,97763.03
2018-08-07T03:31:19.367Z,97762.47
2018-08-07T03:33:48.278Z,97761.46
2018-08-07T03:36:17.467Z,97759.19
2018-08-07T03:38:46.082Z,97756.81
2018-08-07T03:41:14.892Z,97753.52
2018-08-07T03:43:43.524Z,97756.45
2018-08-07T03:46:12.367Z,97759.06
2018-08-07T03:48:41.832Z,97761.93
2018-08-07T03:51:10.677Z,97769.09
2018-08-07T03:53:39.231Z,97765.92
2018-08-07T03:56:07.964Z,97761.30
2018-08-07T03:58:38.287Z,97768.02
2018-08-07T04:01:07.692Z,97773.38
2018-08-07T04:03:36.978Z,97771.01
2018-08-07T04:06:05.742Z,97774.29
2018-08-07T04:08:34.409Z,97771.39
2018-08-07T04:11:03.608Z,97770.46
2018-08-07T04:13:35.045Z,97765.72
2018-08-07T04:16:04.049Z,97771.12
2018-08-07T04:18:33.464Z,97759.81
2018-08-07T04:21:02.488Z,97766.77
2018-08-07T04:23:31.418Z,97765.39
2018-08-07T04:26:00.191Z,97770.14
2018-08-07T04:28:29.167Z,97768.14
2018-08-07T04:30:58.318Z,97773.78
2018-08-07T04:33:27.265Z,97770.42
2018-08-07T04:35:55.982Z,97772.89
2018-08-07T04:38:25.034Z,97773.48
2018-08-07T04:40:53.959Z,97776.98
2018-08-07T04:43:22.536Z,97776.41
2018-08-07T04:45:51.398Z,97781.34
2018-08-07T04:48:20.089Z,97771.17
2018-08-07T04:50:48.710Z,97772.33
2018-08-07T04:53:17.444Z,97774.70
2018-08-07T04:55:46.235Z,97779.25
2018-08-07T04:58:14.913Z,97781.40
2018-08-07T05:00:43.785Z,97775.91
2018-08-07T05:03:12.430Z,97774.96
2018-08-07T05:05:41.047Z,97772.53
2018-08-07T05:08:09.812Z,97775.76
2018-08-07T05:10:39.340Z,97782.16
2018-08-07T05:13:08.317Z,97787.48
2018-08-07T05:15:37.223Z,97798.44
2018-08-07T05:18:06.154Z,97798.23
2018-08-07T05:20:35.008Z,97802.62
2018-08-07T05:23:03.926Z,97801.14
2018-08-07T05:25:32.752Z,97802.22
2018-08-07T05:28:01.719Z,97809.85
2018-08-07T05:30:30.548Z,97811.14
2018-08-07T05:33:00.140Z,97803.39
2018-08-07T05:35:29.421Z,97799.97
2018-08-07T05:37:58.460Z,97801.03
2018-08-07T05:40:28.005Z,97813.45
2018-08-07T05:42:56.904Z,97820.71
2018-08-07T05:45:26.299Z,97817.83
2018-08-07T05:47:55.458Z,97820.37
2018-08-07T05:50:24.482Z,97813.06
2018-08-07T05:52:53.223Z,97814.48
2018-08-07T05:55:22.208Z,97810.35
2018-08-07T05:57:51.507Z,97805.66
2018-08-07T06:00:21.032Z,97805.41
2018-08-07T06:02:50.835Z,97809.34
2018-08-07T06:05:19.716Z,97811.55
2018-08-07T06:07:49.363Z,97816.80
2018-08-07T06:10:18.359Z,97821.41
2018-08-07T06:12:47.734Z,97817.73
2018-08-07T06:15:17.404Z,97823.36
2018-08-07T06:17:47.035Z,97820.22
2018-08-07T06:20:16.298Z,97821.58
2018-08-07T06:22:45.298Z,97829.84
2018-08-07T06:25:14.078Z,97834.38
2018-08-07T06:27:43.044Z,97828.64
2018-08-07T06:30:17.751Z,97829.36
2018-08-07T06:32:47.700Z,97827.89
2018-08-07T06:35:16.999Z,97830.16
2018-08-07T06:37:45.892Z,97831.23
2018-08-07T06:40:14.964Z,97838.96
2018-08-07T06:42:44.580Z,97837.34
2018-08-07T06:45:15.009Z,97842.06
2018-08-07T06:47:43.713Z,97840.62
2018-08-07T06:50:15.794Z,97837.30
2018-08-07T06:52:46.169Z,97837.62
2018-08-07T06:55:15.172Z,97835.86
2018-08-07T06:57:44.016Z,97841.02
2018-08-07T07:00:20.460Z,97843.57
2018-08-07T07:02:49.352Z,97831.50
2018-08-07T07:05:18.200Z,97836.05
2018-08-07T07:07:47.083Z,97838.63
2018-08-07T07:10:16.307Z,97834.69
2018-08-07T07:12:45.764Z,97840.02
2018-08-07T07:15:15.496Z,97843.37
2018-08-07T07:17:46.223Z,97847.92
2018-08-07T07:20:16.235Z,97851.27
2018-08-07T07:22:46.001Z,97858.78
2018-08-07T07:25:15.718Z,97860.95
2018-08-07T07:27:44.679Z,97863.32
2018-08-07T07:30:21.775Z,97860.55
2018-08-07T07:32:52.765Z,97857.59
2018-08-07T07:35:21.425Z,97846.34
2018-08-07T07:37:50.363Z,97848.50
2018-08-07T07:40:19.549Z,97846.92
2018-08-07T07:42:48.448Z,97842.80
2018-08-07T07:45:18.545Z,97847.53
2018-08-07T07:47:47.344Z,97841.20
2018-08-07T07:50:18.686Z,97839.41
2018-08-07T07:52:47.719Z,97841.00
2018-08-07T07:55:17.350Z,97836.47
2018-08-07T07:57:46.259Z,97824.41
2018-08-07T08:00:25.830Z,97827.36
2018-08-07T08:02:54.703Z,97827.38
2018-08-07T08:05:24.746Z,97833.88
2018-08-07T08:07:54.108Z,97842.95
2018-08-07T08:10:23.049Z,97839.39
2018-08-07T08:12:53.339Z,97833.88
2018-08-07T08:15:22.411Z,97841.58
2018-08-07T08:17:51.375Z,97837.64
2018-08-07T08:20:22.439Z,97835.44
2018-08-07T08:22:51.970Z,97840.93
2018-08-07T08:25:21.574Z,97837.22
2018-08-07T08:27:50.424Z,97841.28
2018-08-07T08:30:19.485Z,97838.41
2018-08-07T08:32:48.241Z,97840.04
2018-08-07T08:35:19.204Z,97836.80
2018-08-07T08:37:48.354Z,97842.51
2018-08-07T08:40:19.561Z,97840.17
2018-08-07T08:42:48.804Z,97837.52
2018-08-07T08:45:18.899Z,97848.39
2018-08-07T08:47:49.160Z,97847.45
2018-08-07T08:50:19.355Z,97845.89
2018-08-07T08:52:48.196Z,97853.81
2018-08-07T08:55:17.260Z,97858.23
2018-08-07T08:57:46.409Z,97849.39
2018-08-07T09:00:27.166Z,97859.39
2018-08-07T09:02:57.286Z,97864.75
2018-08-07T09:05:26.540Z,97863.66
2018-08-07T09:07:56.282Z,97863.46
2018-08-07T09:10:28.474Z,97853.98
2018-08-07T09:12:59.081Z,97858.74
2018-08-07T09:15:28.216Z,97862.52
2018-08-07T09:17:57.306Z,97852.03
2018-08-07T09:20:27.926Z,97846.49
2018-08-07T09:22:57.406Z,97848.25
2018-08-07T09:25:27.769Z,97846.89
2018-08-07T09:27:56.606Z,97844.05
2018-08-07T09:30:27.919Z,97841.20
2018-08-07T09:32:57.289Z,97841.64
2018-08-07T09:35:26.436Z,97837.88
2018-08-07T09:37:56.081Z,97832.09
2018-08-07T09:40:25.497Z,97826.34
2018-08-07T09:42:55.534Z,97829.11
2018-08-07T09:45:27.241Z,97827.23
2018-08-07T09:47:57.023Z,97818.03
2018-08-07T09:50:26.155Z,97816.02
2018-08-07T09:52:55.348Z,97810.05
2018-08-07T09:55:25.057Z,97810.41
2018-08-07T09:57:54.105Z,97803.86
2018-08-07T10:00:28.404Z,97801.63
2018-08-07T10:03:02.891Z,97797.16
2018-08-07T10:05:33.229Z,97789.30
2018-08-07T10:08:02.451Z,97785.98
2018-08-07T10:10:31.738Z,97793.78
2018-08-07T10:13:01.356Z,97785.66
2018-08-07T10:15:31.157Z,97786.44
2018-08-07T10:18:00.563Z,97790.39
2018-08-07T10:20:29.551Z,97777.14
2018-08-07T10:22:58.560Z,97781.13
2018-08-07T10:25:27.788Z,97780.84
2018-08-07T10:27:57.054Z,97782.29
2018-08-07T10:30:27.344Z,97778.87
2018-08-07T10:32:56.539Z,97783.56
2018-08-07T10:35:25.610Z,97789.05
2018-08-07T10:37:55.320Z,97780.91
2018-08-07T10:40:26.084Z,97777.13
2018-08-07T10:42:55.421Z,97776.00
2018-08-07T10:45:25.780Z,97775.54
2018-08-07T10:47:54.699Z,97769.43
2018-08-07T10:50:29.973Z,97784.52
2018-08-07T10:53:00.105Z,97768.64
2018-08-07T10:55:29.121Z,97759.70
2018-08-07T10:57:59.654Z,97753.64
2018-08-07T11:00:30.699Z,97777.73
2018-08-07T11:03:00.019Z,97763.56
2018-08-07T11:05:29.685Z,97746.08
2018-08-07T11:07:58.996Z,97744.11
2018-08-07T11:10:28.691Z,97750.04
2018-08-07T11:12:57.789Z,97756.77
2018-08-07T11:15:35.585Z,97757.66
2018-08-07T11:18:05.025Z,97742.98
2018-08-07T11:20:34.744Z,97742.52
2018-08-07T11:23:04.489Z,97745.67
2018-08-07T11:25:34.086Z,97749.66
2018-08-07T11:28:03.111Z,97758.86
2018-08-07T11:30:32.515Z,97770.88
2018-08-07T11:33:03.184Z,97788.67
2018-08-07T11:35:32.466Z,97814.73
2018-08-07T11:38:02.754Z,97827.52
2018-08-07T11:40:31.908Z,97825.41
2018-08-07T11:43:02.057Z,97797.81
2018-08-07T11:45:32.174Z,97784.39
2018-08-07T11:48:01.521Z,97776.78
2018-08-07T11:50:32.871Z,97793.66
2018-08-07T11:53:01.959Z,97812.89
2018-08-07T11:55:31.047Z,97830.86
2018-08-07T11:58:00.453Z,97824.95
2018-08-07T12:00:37.186Z,97832.77
2018-08-07T12:03:07.645Z,97846.16
2018-08-07T12:05:36.801Z,97849.21
2018-08-07T12:08:07.096Z,97854.81
2018-08-07T12:10:36.337Z,97849.69
2018-08-07T12:13:05.559Z,97841.73
2018-08-07T12:15:34.540Z,97821.95
2018-08-07T12:18:03.805Z,97820.41
2018-08-07T12:20:33.090Z,97826.69
2018-08-07T12:23:01.982Z,97818.97
2018-08-07T12:25:31.624Z,97817.50
2018-08-07T12:28:00.822Z,97810.28
2018-08-07T12:30:30.990Z,97804.98
2018-08-07T12:33:00.726Z,97795.00
2018-08-07T12:35:29.725Z,97786.16
2018-08-07T12:37:58.614Z,97784.09
2018-08-07T12:40:29.572Z,97787.96
2018-08-07T12:43:03.044Z,97785.83
2018-08-07T12:45:32.131Z,97791.88
2018-08-07T12:48:01.298Z,97793.95
2018-08-07T12:50:30.590Z,97797.73
2018-08-07T12:52:59.811Z,97803.34
2018-08-07T12:55:29.066Z,97814.59
2018-08-07T12:57:58.245Z,97815.34
2018-08-07T13:00:29.392Z,97824.68
2018-08-07T13:02:58.550Z,97822.60
2018-08-07T13:05:27.678Z,97827.23
2018-08-07T13:07:56.882Z,97826.36
2018-08-07T13:10:26.362Z,97829.81
2018-08-07T13:12:56.242Z,97839.59
2018-08-07T13:15:25.280Z,97821.69
2018-08-07T13:17:54.153Z,97818.25
2018-08-07T13:20:23.063Z,97818.50
2018-08-07T13:22:52.812Z,97814.06
2018-08-07T13:25:22.785Z,97809.96
2018-08-07T13:27:51.626Z,97807.98
2018-08-07T13:30:23.947Z,97803.88
2018-08-07T13:32:52.782Z,97804.27
2018-08-07T13:35:22.395Z,97795.00
2018-08-07T13:37:53.210Z,97796.59
2018-08-07T13:40:23.535Z,97792.44
2018-08-07T13:42:52.879Z,97794.80
2018-08-07T13:45:24.721Z,97792.79
2018-08-07T13:47:53.584Z,97774.98
2018-08-07T13:50:23.951Z,97766.70
2018-08-07T13:52:53.257Z,97755.67
2018-08-07T13:55:23.103Z,97746.61
2018-08-07T13:57:52.437Z,97753.52
2018-08-07T14:00:25.314Z,97788.26
2018-08-07T14:02:54.884Z,97800.09
2018-08-07T14:05:24.272Z,97799.88
2018-08-07T14:07:54.521Z,97802.47
2018-08-07T14:10:26.192Z,97783.09
2018-08-07T14:12:55.264Z,97763.96
2018-08-07T14:15:25.716Z,97763.39
2018-08-07T14:17:54.675Z,97772.87
2018-08-07T14:20:23.811Z,97776.84
2018-08-07T14:22:53.419Z,97775.81
2018-08-07T14:25:24.885Z,97779.34
2018-08-07T14:27:54.537Z,97768.06
2018-08-07T14:30:24.739Z,97765.77
2018-08-07T14:32:53.996Z,97760.84
2018-08-07T14:35:23.311Z,97753.72
2018-08-07T14:37:52.280Z,97751.44
2018-08-07T14:40:22.632Z,97741.01
2018-08-07T14:42:52.053Z,97736.29
2018-08-07T14:45:23.324Z,97730.80
2018-08-07T14:47:52.868Z,97722.13
2018-08-07T14:50:23.405Z,97716.19
2018-08-07T14:52:52.532Z,97716.42
2018-08-07T14:55:21.892Z,97699.64
2018-08-07T14:57:50.990Z,97700.26
2018-08-07T15:00:26.229Z,97703.80
2018-08-07T15:02:55.511Z,97694.72
2018-08-07T15:05:24.572Z,97688.98
2018-08-07T15:07:53.747Z,97703.98
2018-08-07T15:10:23.832Z,97703.59
2018-08-07T15:12:52.853Z,97717.23
2018-08-07T15:15:24.434Z,97713.66
2018-08-07T15:17:53.564Z,97704.79
2018-08-07T15:20:24.273Z,97715.03
2018-08-07T15:22:53.601Z,97716.03
2018-08-07T15:25:22.857Z,97713.05
2018-08-07T15:27:52.352Z,97713.68
2018-08-07T15:30:22.643Z,97714.06
2018-08-07T15:32:52.207Z,97720.95
2018-08-07T15:35:22.293Z,97700.45
2018-08-07T15:37:52.369Z,97680.92
2018-08-07T15:40:22.089Z,97680.50
2018-08-07T15:42:51.751Z,97661.77
2018-08-07T15:45:22.164Z,97647.95
2018-08-07T15:47:51.618Z,97647.94
2018-08-07T15:50:22.311Z,97640.41
2018-08-07T15:52:53.674Z,97625.81
2018-08-07T15:55:24.811Z,97617.73
2018-08-07T15:57:54.107Z,97616.32
2018-08-07T16:00:26.358Z,97616.68
2018-08-07T16:02:56.328Z,97624.55
2018-08-07T16:05:25.516Z,97621.22
2018-08-07T16:07:54.871Z,97618.09
2018-08-07T16:10:24.108Z,97614.55
2018-08-07T16:12:54.115Z,97613.17
2018-08-07T16:15:23.329Z,97616.87
2018-08-07T16:17:53.424Z,97616.08
2018-08-07T16:20:23.533Z,97609.14
2018-08-07T16:22:52.529Z,97615.44
2018-08-07T16:25:23.268Z,97616.23
2018-08-07T16:27:52.567Z,97614.41
2018-08-07T16:30:26.487Z,97606.47
2018-08-07T16:32:56.636Z,97610.21
2018-08-07T16:35:25.958Z,97610.36
2018-08-07T16:37:54.842Z,97607.10
2018-08-07T16:40:24.802Z,97614.95
2018-08-07T16:42:55.593Z,97612.36
2018-08-07T16:45:25.529Z,97601.28
2018-08-07T16:47:54.952Z,97599.47
2018-08-07T16:50:26.945Z,97599.31
2018-08-07T16:52:57.201Z,97598.38
2018-08-07T16:55:27.535Z,97602.78
2018-08-07T16:57:56.713Z,97593.52
2018-08-07T17:00:25.967Z,97593.58
2018-08-07T17:02:55.103Z,97580.41
2018-08-07T17:05:24.302Z,97586.17
2018-08-07T17:07:53.531Z,97598.46
2018-08-07T17:10:25.841Z,97600.90
2018-08-07T17:12:57.382Z,97597.74
2018-08-07T17:15:27.654Z,97601.70
2018-08-07T17:17:57.947Z,97599.77
2018-08-07T17:20:27.491Z,97603.31
2018-08-07T17:22:57.267Z,97603.94
2018-08-07T17:25:28.148Z,97604.33
2018-08-07T17:28:00.269Z,97604.94
2018-08-07T17:30:30.554Z,97599.20
2018-08-07T17:33:01.862Z,97591.73
2018-08-07T17:35:31.374Z,97590.57
2018-08-07T17:38:00.737Z,97586.03
2018-08-07T17:40:30.701Z,97586.25
2018-08-07T17:43:01.488Z,97585.28
2018-08-07T17:45:31.039Z,97585.23
2018-08-07T17:48:00.764Z,97577.14
2018-08-07T17:50:30.076Z,97591.71
2018-08-07T17:53:01.239Z,97592.08
2018-08-07T17:55:31.309Z,97591.48
2018-08-07T17:58:01.328Z,97596.59
2018-08-07T18:00:31.019Z,97592.00
2018-08-07T18:02:59.999Z,97587.05
2018-08-07T18:05:29.123Z,97591.55
2018-08-07T18:07:58.766Z,97586.80
2018-08-07T18:10:28.351Z,97591.11
2018-08-07T18:12:59.635Z,97591.08
2018-08-07T18:15:29.122Z,97586.14
2018-08-07T18:17:59.199Z,97587.66
2018-08-07T18:20:28.911Z,97585.70
2018-08-07T18:22:57.792Z,97577.55
2018-08-07T18:25:27.791Z,97579.84
2018-08-07T18:27:57.287Z,97570.95
2018-08-07T18:30:26.249Z,97573.84
2018-08-07T18:32:56.290Z,97567.70
2018-08-07T18:35:26.926Z,97572.77
2018-08-07T18:37:56.064Z,97567.19
2018-08-07T18:40:24.969Z,97567.46
2018-08-07T18:42:54.541Z,97568.14
2018-08-07T18:45:23.402Z,97564.98
2018-08-07T18:47:52.783Z,97574.31
2018-08-07T18:50:23.492Z,97572.07
2018-08-07T18:52:52.926Z,97580.21
2018-08-07T18:55:22.059Z,97579.30
2018-08-07T18:57:51.632Z,97587.11
2018-08-07T19:00:22.973Z,97584.19
2018-08-07T19:02:52.231Z,97586.55
2018-08-07T19:05:22.923Z,97581.86
2018-08-07T19:07:53.061Z,97584.09
2018-08-07T19:10:22.381Z,97583.08
2018-08-07T19:12:51.292Z,97582.41
2018-08-07T19:15:20.819Z,97582.84
2018-08-07T19:17:50.010Z,97591.01
2018-08-07T19:20:20.270Z,97586.33
2018-08-07T19:22:49.394Z,97584.13
2018-08-07T19:25:18.733Z,97594.94
2018-08-07T19:27:47.693Z,97605.55
2018-08-07T19:30:18.137Z,97602.91
2018-08-07T19:32:47.479Z,97603.48
2018-08-07T19:35:16.227Z,97611.94
2018-08-07T19:37:45.109Z,97620.53
2018-08-07T19:40:15.547Z,97627.69
2018-08-07T19:42:45.097Z,97621.28
2018-08-07T19:45:14.588Z,97623.70
2018-08-07T19:47:44.134Z,97625.34
2018-08-07T19:50:14.491Z,97629.08
2018-08-07T19:52:43.314Z,97630.18
2018-08-07T19:55:15.394Z,97637.69
2018-08-07T19:57:44.448Z,97633.81
2018-08-07T20:00:16.636Z,97634.44
2018-08-07T20:02:46.002Z,97635.56
2018-08-07T20:05:15.067Z,97643.28
2018-08-07T20:07:44.113Z,97648.39
2018-08-07T20:10:14.464Z,97652.54
2018-08-07T20:12:44.033Z,97656.36
2018-08-07T20:15:20.782Z,97667.75
2018-08-07T20:17:50.626Z,97673.47
2018-08-07T20:20:19.645Z,97669.27
2018-08-07T20:22:48.471Z,97670.58
2018-08-07T20:25:17.330Z,97678.66
2018-08-07T20:27:46.019Z,97678.09
2018-08-07T20:30:18.935Z,97681.53
2018-08-07T20:32:48.782Z,97686.97
2018-08-07T20:35:17.524Z,97683.36
2018-08-07T20:37:46.559Z,97687.25
2018-08-07T20:40:19.613Z,97691.94
2018-08-07T20:42:48.524Z,97695.82
2018-08-07T20:45:18.084Z,97703.98
2018-08-07T20:47:47.530Z,97705.34
2018-08-07T20:50:20.778Z,97701.81
2018-08-07T20:52:50.276Z,97702.81
2018-08-07T20:55:19.189Z,97704.11
2018-08-07T20:57:48.168Z,97693.16
2018-08-07T21:00:20.678Z,97689.85
2018-08-07T21:02:49.924Z,97688.59
2018-08-07T21:05:18.809Z,97696.08
2018-08-07T21:07:47.659Z,97691.02
2018-08-07T21:10:18.122Z,97697.95
2018-08-07T21:12:47.369Z,97693.75
2018-08-07T21:15:16.282Z,97694.77
2018-08-07T21:17:45.849Z,97690.42
2018-08-07T21:20:17.148Z,97692.53
2018-08-07T21:22:46.870Z,97688.48
2018-08-07T21:25:18.537Z,97687.39
2018-08-07T21:27:48.628Z,97682.41
2018-08-07T21:30:19.934Z,97676.28
2018-08-07T21:32:48.938Z,97674.55
2018-08-07T21:35:17.820Z,97676.98
2018-08-07T21:37:47.443Z,97666.63
2018-08-07T21:40:19.536Z,97664.59
2018-08-07T21:42:49.178Z,97665.47
2018-08-07T21:45:18.144Z,97671.38
2018-08-07T21:47:47.262Z,97675.61
2018-08-07T21:50:18.619Z,97671.41
2018-08-07T21:52:47.354Z,97670.16
2018-08-07T21:55:18.374Z,97661.09
2018-08-07T21:57:47.147Z,97669.66
2018-08-07T22:00:37.619Z,97671.73
2018-08-07T22:03:07.587Z,97665.39
2018-08-07T22:05:36.409Z,97658.98
2018-08-07T22:08:05.345Z,97650.91
2018-08-07T22:10:34.188Z,97646.00
2018-08-07T22:13:02.970Z,97647.00
2018-08-07T22:15:31.979Z,97646.36
2018-08-07T22:18:01.524Z,97646.63
2018-08-07T22:20:30.470Z,97646.27
2018-08-07T22:22:59.798Z,97637.28
2018-08-07T22:25:29.019Z,97638.19
2018-08-07T22:27:58.342Z,97627.95
2018-08-07T22:30:27.223Z,97633.91
2018-08-07T22:32:56.565Z,97627.52
2018-08-07T22:35:25.515Z,97627.34
2018-08-07T22:37:54.128Z,97621.43
2018-08-07T22:40:22.950Z,97627.57
2018-08-07T22:42:51.574Z,97633.04
2018-08-07T22:45:21.041Z,97634.43
2018-08-07T22:47:49.736Z,97639.25
2018-08-07T22:50:19.383Z,97638.09
2018-08-07T22:52:48.763Z,97635.41
2018-08-07T22:55:18.758Z,97625.90
2018-08-07T22:57:50.874Z,97619.63
2018-08-07T23:00:21.284Z,97607.59
2018-08-07T23:02:49.943Z,97601.61
2018-08-07T23:05:19.169Z,97602.75
2018-08-07T23:07:49.655Z,97607.77
2018-08-07T23:10:20.829Z,97611.53
2018-08-07T23:12:50.069Z,97606.09
2018-08-07T23:15:20.285Z,97603.28
2018-08-07T23:17:49.375Z,97602.84
2018-08-07T23:20:19.932Z,97595.78
2018-08-07T23:22:49.808Z,97595.78
2018-08-07T23:25:18.493Z,97586.09
2018-08-07T23:27:47.224Z,97586.02
2018-08-07T23:30:17.580Z,97583.48
2018-08-07T23:32:46.382Z,97580.91
2018-08-07T23:35:16.169Z,97577.32
2018-08-07T23:37:45.090Z,97571.78
2018-08-07T23:40:14.806Z,97576.67
2018-08-07T23:42:44.723Z,97580.90
2018-08-07T23:45:14.673Z,97584.45
2018-08-07T23:47:43.403Z,97594.17
2018-08-07T23:50:13.200Z,97591.48
2018-08-07T23:52:42.560Z,97587.59
2018-08-07T23:55:11.304Z,97579.33
2018-08-07T23:57:40.803Z,97579.20
